Time;durP1;ratioP1;P1;durP2;ratioP2;P2;SDS_P1;SDS_P2;PMS_P1;PMS_P2;Temp;Humidity;BMP_temperature;BMP_pressure;BME280_temperature;BME280_humidity;BME280_pressure;Samples;Min_cycle;Max_cycle;Signal;HPM_P1;HPM_P2
2023/10/20 00:01:52;;;;;;;10.63;7.82;;;7.70;99.90;;;;;;5075593;28;20499;-69
2023/10/20 00:04:19;;;;;;;10.77;7.32;;;7.70;99.90;;;;;;5076218;28;20117;-69
2023/10/20 00:06:46;;;;;;;11.00;7.22;;;7.70;99.90;;;;;;5076362;28;20119;-69
2023/10/20 00:09:14;;;;;;;10.95;7.80;;;7.70;99.90;;;;;;5089530;28;20101;-68
2023/10/20 00:11:43;;;;;;;13.38;8.73;;;7.70;99.90;;;;;;5094062;28;20044;-68
2023/10/20 00:14:11;;;;;;;10.50;7.38;;;7.70;99.90;;;;;;5076040;28;20051;-69
2023/10/20 00:16:38;;;;;;;13.13;8.52;;;7.70;99.90;;;;;;5071475;28;20048;-69
2023/10/20 00:19:05;;;;;;;12.93;7.57;;;7.70;99.90;;;;;;5094275;28;20051;-69
2023/10/20 00:21:32;;;;;;;11.38;7.93;;;7.60;99.90;;;;;;5071704;28;20047;-69
2023/10/20 00:23:59;;;;;;;10.57;8.05;;;7.60;99.90;;;;;;5075189;28;20084;-69
2023/10/20 00:26:26;;;;;;;12.02;8.43;;;7.70;99.90;;;;;;5075723;28;20127;-69
2023/10/20 00:28:52;;;;;;;15.90;8.60;;;7.70;99.90;;;;;;5093851;28;20454;-69
2023/10/20 00:31:21;;;;;;;12.88;8.52;;;7.60;99.90;;;;;;5075074;28;20050;-69
2023/10/20 00:33:50;;;;;;;10.88;7.97;;;7.70;99.90;;;;;;5075406;28;20051;-69
2023/10/20 00:36:17;;;;;;;12.85;7.97;;;7.60;99.90;;;;;;5075824;28;20060;-69
2023/10/20 00:38:44;;;;;;;12.43;8.63;;;7.60;99.90;;;;;;5075048;28;20056;-70
2023/10/20 00:41:10;;;;;;;12.77;8.77;;;8.60;99.90;;;;;;5093495;28;20089;-70
2023/10/20 00:43:38;;;;;;;12.05;8.85;;;7.60;99.90;;;;;;5075087;28;20565;-68
2023/10/20 00:46:06;;;;;;;12.18;8.50;;;7.60;99.90;;;;;;5075298;28;20048;-69
2023/10/20 00:48:36;;;;;;;10.48;7.70;;;7.60;99.90;;;;;;5093320;28;20040;-69
2023/10/20 00:51:05;;;;;;;11.40;7.93;;;7.60;99.90;;;;;;5071691;28;20134;-69
2023/10/20 00:53:34;;;;;;;14.38;8.23;;;7.60;99.90;;;;;;5075185;28;20040;-69
2023/10/20 00:56:03;;;;;;;12.00;8.27;;;7.60;99.90;;;;;;5075408;28;20097;-69
2023/10/20 00:58:31;;;;;;;14.50;9.05;;;7.60;99.90;;;;;;5074686;28;20052;-70
2023/10/20 01:00:58;;;;;;;13.70;8.40;;;7.60;99.90;;;;;;5074752;28;20052;-69
2023/10/20 01:03:24;;;;;;;12.88;8.23;;;7.60;99.90;;;;;;5093255;28;20051;-70
2023/10/20 01:05:53;;;;;;;13.13;8.35;;;7.60;99.90;;;;;;5070328;28;20077;-69
2023/10/20 01:08:20;;;;;;;13.43;8.95;;;7.60;99.90;;;;;;5075086;28;20108;-70
2023/10/20 01:10:46;;;;;;;13.25;9.55;;;7.60;99.90;;;;;;5075254;28;20052;-69
2023/10/20 01:13:13;;;;;;;13.55;9.27;;;7.60;99.90;;;;;;5074455;28;20044;-68
2023/10/20 01:15:41;;;;;;;15.02;9.48;;;7.60;99.90;;;;;;5092827;28;20094;-69
2023/10/20 01:18:09;;;;;;;14.73;9.45;;;7.60;99.90;;;;;;5074568;28;20044;-70
2023/10/20 01:20:36;;;;;;;16.13;10.02;;;7.60;99.90;;;;;;5074373;28;20143;-70
2023/10/20 01:23:04;;;;;;;16.40;9.80;;;7.60;99.90;;;;;;5074858;28;20051;-69
2023/10/20 01:25:32;;;;;;;15.63;10.13;;;7.60;99.90;;;;;;5074680;28;20054;-70
2023/10/20 01:27:59;;;;;;;15.60;10.07;;;7.60;99.90;;;;;;5070498;28;20066;-69
2023/10/20 01:30:26;;;;;;;17.13;10.50;;;7.60;99.90;;;;;;5074279;28;20102;-69
2023/10/20 01:32:53;;;;;;;20.30;12.27;;;7.60;99.90;;;;;;5074064;28;20048;-69
2023/10/20 01:35:20;;;;;;;15.95;10.73;;;7.60;99.90;;;;;;5074369;28;20047;-68
2023/10/20 01:37:47;;;;;;;21.17;11.77;;;7.50;99.90;;;;;;5074553;28;20096;-69
2023/10/20 01:40:14;;;;;;;20.25;12.27;;;7.50;99.90;;;;;;5073845;28;20040;-69
2023/10/20 01:42:42;;;;;;;21.00;12.10;;;7.50;99.90;;;;;;5092211;28;20101;-68
2023/10/20 01:45:10;;;;;;;19.33;12.70;;;7.60;99.90;;;;;;5074105;28;20051;-67
2023/10/20 01:47:37;;;;;;;21.13;12.68;;;7.50;99.90;;;;;;5091714;28;20111;-68
2023/10/20 01:50:04;;;;;;;18.75;12.40;;;7.50;99.90;;;;;;5074228;28;20044;-69
2023/10/20 01:52:31;;;;;;;24.40;12.35;;;7.60;99.90;;;;;;5074326;28;20135;-69
2023/10/20 01:54:59;;;;;;;22.17;12.43;;;7.60;99.90;;;;;;5073455;28;20544;-69
2023/10/20 01:57:26;;;;;;;20.38;12.52;;;7.60;99.90;;;;;;5069947;28;20151;-69
2023/10/20 01:59:54;;;;;;;20.05;12.95;;;7.60;99.90;;;;;;5073901;28;20056;-69
2023/10/20 02:02:21;;;;;;;24.42;12.85;;;7.60;99.90;;;;;;5069822;28;20143;-69
2023/10/20 02:04:48;;;;;;;22.60;14.05;;;7.60;99.90;;;;;;5074106;28;20052;-69
2023/10/20 02:07:15;;;;;;;21.23;13.43;;;7.60;99.90;;;;;;5074256;28;20048;-69
2023/10/20 02:09:42;;;;;;;19.25;12.68;;;7.60;99.90;;;;;;5073022;28;20458;-69
2023/10/20 02:12:10;;;;;;;20.45;12.80;;;7.60;99.90;;;;;;5074077;28;20074;-69
2023/10/20 02:14:37;;;;;;;19.27;12.43;;;7.60;99.90;;;;;;5073746;28;20044;-68
2023/10/20 02:17:05;;;;;;;22.35;13.30;;;7.60;99.90;;;;;;5073369;28;20043;-69
2023/10/20 02:19:32;;;;;;;21.10;12.65;;;7.60;99.90;;;;;;5073844;28;20094;-70
2023/10/20 02:22:00;;;;;;;20.42;12.55;;;7.60;99.90;;;;;;5091367;28;20133;-69
2023/10/20 02:24:27;;;;;;;21.20;13.40;;;7.60;99.90;;;;;;5091905;28;20119;-70
2023/10/20 02:26:54;;;;;;;23.00;13.77;;;7.60;99.90;;;;;;5091785;28;20325;-69
2023/10/20 02:29:21;;;;;;;24.10;13.60;;;7.60;99.90;;;;;;5073477;28;20055;-69
2023/10/20 02:31:48;;;;;;;19.52;12.70;;;7.60;99.90;;;;;;5073757;28;20476;-69
2023/10/20 02:34:16;;;;;;;19.13;12.77;;;7.60;99.90;;;;;;5073688;28;20075;-69
2023/10/20 02:36:43;;;;;;;24.85;14.73;;;7.60;99.90;;;;;;5069576;28;20059;-69
2023/10/20 02:39:10;;;;;;;19.90;12.98;;;7.60;99.90;;;;;;5073902;28;20541;-70
2023/10/20 02:41:37;;;;;;;24.13;13.38;;;7.60;99.90;;;;;;5073802;28;20105;-69
2023/10/20 02:44:04;;;;;;;24.67;13.65;;;7.50;99.90;;;;;;5073054;28;20474;-70
2023/10/20 02:46:31;;;;;;;29.73;15.18;;;7.60;99.90;;;;;;5073779;28;20048;-70
2023/10/20 02:48:58;;;;;;;23.88;14.82;;;7.50;99.90;;;;;;5073435;28;20058;-70
2023/10/20 02:51:26;;;;;;;24.55;14.65;;;7.60;99.90;;;;;;5073108;28;20048;-71
2023/10/20 02:53:53;;;;;;;23.50;14.75;;;7.60;99.90;;;;;;5073517;28;20043;-70
2023/10/20 02:56:23;;;;;;;23.55;13.60;;;7.60;99.90;;;;;;5073700;28;20118;-70
2023/10/20 02:58:50;;;;;;;28.35;14.93;;;7.60;99.90;;;;;;5073165;28;20063;-69
2023/10/20 03:01:18;;;;;;;24.98;13.75;;;7.50;99.90;;;;;;5072957;28;20508;-70
2023/10/20 03:03:46;;;;;;;22.02;14.10;;;7.60;99.90;;;;;;5091561;28;20059;-70
2023/10/20 03:06:13;;;;;;;22.05;14.50;;;7.50;99.90;;;;;;5069119;28;20416;-70
2023/10/20 03:08:41;;;;;;;27.35;15.70;;;7.50;99.90;;;;;;5073680;28;20056;-69
2023/10/20 03:11:09;;;;;;;30.88;16.27;;;7.50;99.90;;;;;;5073462;28;20454;-70
2023/10/20 03:13:37;;;;;;;26.02;14.38;;;7.50;99.90;;;;;;5073189;28;20044;-70
2023/10/20 03:16:05;;;;;;;22.30;14.02;;;7.40;99.90;;;;;;5073476;28;20056;-70
2023/10/20 03:18:32;;;;;;;20.08;13.35;;;7.50;99.90;;;;;;5072999;28;20082;-70
2023/10/20 03:21:01;;;;;;;24.08;14.50;;;7.50;99.90;;;;;;5073998;28;20122;-70
2023/10/20 03:23:28;;;;;;;22.83;14.25;;;7.50;99.90;;;;;;5076901;28;20496;-68
2023/10/20 03:25:57;;;;;;;23.55;13.43;;;7.50;99.90;;;;;;5090012;28;20040;-70
2023/10/20 03:28:23;;;;;;;22.85;14.00;;;7.50;99.90;;;;;;5077075;28;20131;-70
2023/10/20 03:30:50;;;;;;;21.25;14.23;;;7.40;99.90;;;;;;5076930;28;20108;-70
2023/10/20 03:33:17;;;;;;;22.35;14.20;;;7.40;99.90;;;;;;5094109;28;20105;-70
2023/10/20 03:35:44;;;;;;;25.00;15.32;;;7.40;99.90;;;;;;5094657;28;20048;-70
2023/10/20 03:38:11;;;;;;;26.42;14.73;;;7.40;99.90;;;;;;5076590;28;20097;-70
2023/10/20 03:40:40;;;;;;;25.88;14.55;;;7.40;99.90;;;;;;5076063;28;20040;-70
2023/10/20 03:43:09;;;;;;;23.98;14.07;;;7.40;99.90;;;;;;5076718;28;20054;-70
2023/10/20 03:45:41;;;;;;;21.35;14.15;;;7.40;99.90;;;;;;5076407;28;20055;-71
2023/10/20 03:48:09;;;;;;;22.33;13.85;;;7.40;99.90;;;;;;5075900;28;20044;-69
2023/10/20 03:50:38;;;;;;;23.08;14.20;;;7.40;99.90;;;;;;5076368;28;20072;-69
2023/10/20 03:53:05;;;;;;;17.88;12.10;;;7.40;99.90;;;;;;5076596;28;20051;-69
2023/10/20 03:55:34;;;;;;;19.35;12.15;;;7.40;99.90;;;;;;5075608;28;20071;-70
2023/10/20 03:58:02;;;;;;;22.67;12.00;;;7.40;99.90;;;;;;5076567;28;20044;-70
2023/10/20 04:00:31;;;;;;;18.85;12.10;;;7.40;99.90;;;;;;5075565;28;20094;-70
2023/10/20 04:02:58;;;;;;;20.35;11.80;;;7.40;99.90;;;;;;5076154;28;20048;-70
2023/10/20 04:05:26;;;;;;;19.65;11.93;;;7.40;99.90;;;;;;5071803;28;20093;-70
2023/10/20 04:07:53;;;;;;;19.65;12.05;;;8.20;99.90;;;;;;5075679;28;20048;-69
2023/10/20 04:10:21;;;;;;;17.00;11.15;;;7.30;99.90;;;;;;5076268;28;20093;-69
2023/10/20 04:12:48;;;;;;;14.82;10.95;;;7.40;99.90;;;;;;5076218;28;20056;-69
2023/10/20 04:15:16;;;;;;;19.30;10.43;;;7.40;99.90;;;;;;5075444;28;20055;-69
2023/10/20 04:17:51;;;;;;;16.25;10.23;;;7.40;99.90;;;;;;5071466;28;20408;-70
2023/10/20 04:20:18;;;;;;;15.70;10.00;;;7.40;99.90;;;;;;5075942;28;20071;-70
2023/10/20 04:22:50;;;;;;;15.20;10.55;;;7.40;99.90;;;;;;5093110;28;20471;-70
2023/10/20 04:25:18;;;;;;;16.33;10.52;;;7.40;99.90;;;;;;5077036;28;20082;-70
2023/10/20 04:27:54;;;;;;;15.70;10.30;;;7.50;99.90;;;;;;5068284;28;20054;-69
2023/10/20 04:58:04;;;;;;;11.35;7.68;;;7.50;99.90;;;;;;5083402;28;20123;-70
2023/10/20 05:00:42;;;;;;;12.68;8.00;;;7.50;99.90;;;;;;5065218;28;20057;-70
2023/10/20 05:03:29;;;;;;;11.75;7.38;;;7.50;99.90;;;;;;5063265;28;20501;-69
2023/10/20 05:06:05;;;;;;;9.88;7.35;;;7.50;99.90;;;;;;5066969;28;20110;-69
2023/10/20 05:08:32;;;;;;;9.65;7.70;;;7.50;99.90;;;;;;5066026;28;20088;-70
2023/10/20 05:10:59;;;;;;;11.30;6.88;;;7.50;99.90;;;;;;5066408;28;20049;-68
2023/10/20 05:13:26;;;;;;;11.25;6.40;;;7.50;99.90;;;;;;5065186;28;20053;-69
2023/10/20 05:15:53;;;;;;;11.02;7.00;;;7.50;99.90;;;;;;5066975;28;20094;-70
2023/10/20 05:18:20;;;;;;;10.82;6.68;;;7.50;99.90;;;;;;5064329;28;20101;-70
2023/10/20 05:20:47;;;;;;;11.13;6.43;;;7.50;99.90;;;;;;5065900;28;20170;-71
2023/10/20 05:23:15;;;;;;;9.13;6.38;;;7.50;99.90;;;;;;5064956;28;20107;-69
2023/10/20 05:25:47;;;;;;;9.75;6.63;;;7.50;99.90;;;;;;5067979;28;20044;-69
2023/10/20 05:28:15;;;;;;;10.60;6.78;;;7.60;99.90;;;;;;5063905;28;20485;-69
2023/10/20 05:30:43;;;;;;;10.05;6.65;;;7.60;99.90;;;;;;5061719;28;20048;-70
2023/10/20 05:33:11;;;;;;;10.55;6.15;;;7.60;99.90;;;;;;5066217;28;20040;-69
2023/10/20 05:35:39;;;;;;;9.00;5.82;;;7.60;99.90;;;;;;5067641;28;20131;-69
2023/10/20 05:38:06;;;;;;;8.27;5.72;;;7.60;99.90;;;;;;5069203;28;21357;-69
2023/10/20 05:40:35;;;;;;;8.10;6.05;;;7.60;99.90;;;;;;5067493;28;20109;-70
2023/10/20 05:43:03;;;;;;;8.43;6.30;;;7.60;99.90;;;;;;5064789;28;20119;-70
2023/10/20 05:45:32;;;;;;;12.15;6.15;;;7.60;99.90;;;;;;5068424;28;20448;-69
2023/10/20 05:48:00;;;;;;;8.40;5.88;;;7.60;99.90;;;;;;5050487;28;20099;-68
2023/10/20 05:50:27;;;;;;;8.48;5.28;;;7.60;99.90;;;;;;5055133;28;20060;-69
2023/10/20 05:52:54;;;;;;;7.22;4.72;;;7.60;99.90;;;;;;5055627;28;20127;-69
2023/10/20 05:55:22;;;;;;;9.05;5.40;;;7.60;99.90;;;;;;5053772;28;20436;-69
2023/10/20 05:57:51;;;;;;;7.95;5.38;;;7.70;99.90;;;;;;5049821;28;20081;-69
2023/10/20 06:00:18;;;;;;;7.55;5.60;;;7.70;99.90;;;;;;5069319;28;20060;-69
2023/10/20 06:02:46;;;;;;;7.72;4.70;;;7.70;99.90;;;;;;5068702;28;20407;-68
2023/10/20 06:05:14;;;;;;;6.60;4.55;;;7.70;99.90;;;;;;5070273;28;20079;-69
2023/10/20 06:07:42;;;;;;;7.90;4.57;;;7.70;99.90;;;;;;5089392;28;20389;-68
2023/10/20 06:10:11;;;;;;;6.28;4.20;;;7.70;99.90;;;;;;5055071;28;20450;-69
2023/10/20 06:12:38;;;;;;;7.13;4.60;;;7.70;99.90;;;;;;5059195;28;20059;-69
2023/10/20 06:15:08;;;;;;;7.47;4.18;;;7.70;99.90;;;;;;5067187;28;20048;-68
2023/10/20 06:17:35;;;;;;;7.57;4.72;;;7.70;99.90;;;;;;5073998;28;20052;-68
2023/10/20 06:20:06;;;;;;;7.10;4.13;;;7.70;99.90;;;;;;5074022;28;20105;-69
2023/10/20 06:22:33;;;;;;;5.13;3.10;;;7.70;99.90;;;;;;5069930;28;20127;-68
2023/10/20 06:25:00;;;;;;;8.98;3.38;;;7.70;99.90;;;;;;5073091;28;20553;-68
2023/10/20 06:27:27;;;;;;;7.35;3.25;;;7.70;99.90;;;;;;5069081;28;20076;-68
2023/10/20 06:29:58;;;;;;;6.10;3.55;;;7.70;99.90;;;;;;5072856;28;20101;-69
2023/10/20 06:32:31;;;;;;;4.80;3.38;;;7.70;99.90;;;;;;5073597;28;20044;-68
2023/10/20 06:35:00;;;;;;;5.53;3.17;;;7.70;99.90;;;;;;5070191;28;20072;-68
2023/10/20 06:37:35;;;;;;;6.88;3.20;;;7.70;99.90;;;;;;5072728;28;20044;-68
2023/10/20 06:40:03;;;;;;;3.90;2.70;;;7.60;99.90;;;;;;5091125;28;20484;-69
2023/10/20 06:42:30;;;;;;;3.67;2.70;;;7.60;99.90;;;;;;5066764;28;20053;-68
2023/10/20 06:44:57;;;;;;;5.47;3.10;;;7.60;99.90;;;;;;5089332;28;20480;-69
2023/10/20 06:47:24;;;;;;;5.70;3.30;;;7.60;99.90;;;;;;5067266;28;20491;-69
2023/10/20 06:49:52;;;;;;;5.70;3.03;;;7.60;99.90;;;;;;5066103;28;20048;-68
2023/10/20 06:52:19;;;;;;;5.75;3.30;;;7.60;99.90;;;;;;5071016;28;20096;-69
2023/10/20 06:54:48;;;;;;;4.85;3.63;;;7.60;99.90;;;;;;5069894;28;20048;-69
2023/10/20 06:57:16;;;;;;;5.25;3.33;;;7.50;99.90;;;;;;5068675;28;20181;-68
2023/10/20 06:59:43;;;;;;;5.90;3.25;;;7.50;99.90;;;;;;5075709;28;20097;-68
2023/10/20 07:02:09;;;;;;;4.35;2.55;;;7.50;99.90;;;;;;5068122;28;20105;-68
2023/10/20 07:04:37;;;;;;;5.57;2.92;;;7.50;99.90;;;;;;5076219;28;20047;-68
2023/10/20 07:07:11;;;;;;;3.55;2.50;;;7.50;99.90;;;;;;5076888;28;20048;-67
2023/10/20 07:09:38;;;;;;;5.75;2.92;;;7.50;99.90;;;;;;5076956;28;20089;-68
2023/10/20 07:12:06;;;;;;;6.00;2.75;;;7.50;99.90;;;;;;5074274;28;20047;-69
2023/10/20 07:14:33;;;;;;;4.18;2.67;;;7.50;99.90;;;;;;5076720;28;20052;-69
2023/10/20 07:17:03;;;;;;;3.88;2.55;;;7.50;99.90;;;;;;5076447;28;20044;-69
2023/10/20 07:19:31;;;;;;;3.75;2.50;;;7.40;99.90;;;;;;5053629;28;20134;-68
2023/10/20 07:21:58;;;;;;;4.70;2.70;;;7.40;99.90;;;;;;5082064;28;20048;-69
2023/10/20 07:24:27;;;;;;;4.53;2.58;;;7.40;99.90;;;;;;5075710;28;20440;-68
2023/10/20 07:26:54;;;;;;;4.15;2.58;;;7.30;99.90;;;;;;5074233;28;20050;-68
2023/10/20 07:29:24;;;;;;;9.25;2.72;;;7.40;99.90;;;;;;5076644;28;20056;-68
2023/10/20 07:31:54;;;;;;;5.73;3.17;;;7.40;99.90;;;;;;5072162;28;20109;-68
2023/10/20 07:34:21;;;;;;;5.00;3.03;;;7.40;99.90;;;;;;5071766;28;20052;-68
2023/10/20 07:36:48;;;;;;;4.22;2.67;;;7.40;99.90;;;;;;5076261;28;20124;-68
2023/10/20 07:39:17;;;;;;;8.07;2.67;;;7.30;99.90;;;;;;5075901;28;20097;-68
2023/10/20 07:41:45;;;;;;;4.20;2.58;;;7.30;99.90;;;;;;5094187;28;20487;-68
2023/10/20 07:44:13;;;;;;;3.88;2.85;;;7.30;99.90;;;;;;5076396;28;20048;-69
2023/10/20 07:46:41;;;;;;;4.97;2.97;;;7.30;99.90;;;;;;5076024;28;20052;-69
2023/10/20 07:49:11;;;;;;;4.97;2.72;;;7.30;99.90;;;;;;5076278;28;20040;-68
2023/10/20 07:51:38;;;;;;;6.55;3.08;;;7.20;99.90;;;;;;5093986;28;20047;-68
2023/10/20 07:54:05;;;;;;;5.05;3.10;;;7.20;99.90;;;;;;5075824;28;20109;-68
2023/10/20 07:56:32;;;;;;;4.70;3.20;;;7.20;99.90;;;;;;5075944;28;20546;-69
2023/10/20 07:59:00;;;;;;;5.88;3.13;;;7.20;99.90;;;;;;5075953;28;20079;-67
2023/10/20 08:01:28;;;;;;;6.72;3.50;;;7.20;99.90;;;;;;5075339;28;20074;-68
2023/10/20 08:03:55;;;;;;;5.70;3.85;;;7.10;99.90;;;;;;5075856;28;20063;-69
2023/10/20 08:06:21;;;;;;;3.78;2.72;;;7.20;99.90;;;;;;5075319;28;20101;-68
2023/10/20 08:08:49;;;;;;;5.47;3.17;;;7.20;99.90;;;;;;5075235;28;20052;-68
2023/10/20 08:11:16;;;;;;;5.68;3.67;;;7.20;99.90;;;;;;5076057;28;20050;-68
2023/10/20 08:13:50;;;;;;;4.93;3.53;;;7.20;99.90;;;;;;5066492;28;20052;-66
2023/10/20 08:16:22;;;;;;;5.70;3.42;;;7.20;99.90;;;;;;5063554;28;20484;-68
2023/10/20 08:18:49;;;;;;;4.93;3.22;;;7.20;99.90;;;;;;5066731;28;20499;-67
2023/10/20 08:21:16;;;;;;;4.18;2.72;;;7.10;99.90;;;;;;5074924;28;20050;-68
2023/10/20 08:23:44;;;;;;;3.80;2.45;;;7.10;99.90;;;;;;5075421;28;20056;-67
2023/10/20 08:26:15;;;;;;;6.45;2.92;;;7.10;99.90;;;;;;5093692;28;20059;-68
2023/10/20 08:28:42;;;;;;;4.50;2.63;;;7.00;99.90;;;;;;5070684;28;20139;-68
2023/10/20 08:31:13;;;;;;;4.80;2.80;;;7.10;99.90;;;;;;5075728;28;20044;-68
2023/10/20 08:33:41;;;;;;;3.80;2.58;;;7.10;99.90;;;;;;5072092;28;20128;-68
2023/10/20 08:36:16;;;;;;;4.15;2.55;;;7.10;99.90;;;;;;5074808;28;20036;-69
2023/10/20 08:38:44;;;;;;;5.60;2.60;;;7.10;99.90;;;;;;5075014;28;20101;-69
2023/10/20 08:41:13;;;;;;;4.72;2.40;;;7.00;99.90;;;;;;5075653;28;20402;-67
2023/10/20 08:43:41;;;;;;;4.25;2.65;;;7.10;99.90;;;;;;5070841;28;20063;-67
2023/10/20 08:46:09;;;;;;;4.88;2.55;;;7.10;99.90;;;;;;5075141;28;20048;-67
2023/10/20 08:48:38;;;;;;;3.70;2.10;;;7.00;99.90;;;;;;5075322;28;20459;-68
2023/10/20 08:51:08;;;;;;;3.90;2.03;;;7.00;99.90;;;;;;5071150;28;20044;-67
2023/10/20 08:53:36;;;;;;;3.15;2.20;;;7.00;99.90;;;;;;5075008;28;20066;-68
2023/10/20 08:56:04;;;;;;;4.55;2.33;;;7.00;99.90;;;;;;5074179;28;20044;-68
2023/10/20 08:58:32;;;;;;;3.88;2.00;;;7.00;99.90;;;;;;5068631;28;20058;-68
2023/10/20 09:01:00;;;;;;;3.50;2.25;;;7.00;99.90;;;;;;5074549;28;20067;-68
2023/10/20 09:03:27;;;;;;;5.05;1.88;;;7.00;99.90;;;;;;5092389;28;20098;-68
2023/10/20 09:06:02;;;;;;;5.72;2.17;;;7.00;99.90;;;;;;5074989;28;20488;-68
2023/10/20 09:08:31;;;;;;;4.20;2.25;;;7.00;99.90;;;;;;5074716;28;20044;-69
2023/10/20 09:10:58;;;;;;;5.18;2.53;;;7.00;99.90;;;;;;5074290;28;20451;-68
2023/10/20 09:13:32;;;;;;;3.30;2.10;;;7.00;99.90;;;;;;5074531;28;20121;-68
2023/10/20 09:15:58;;;;;;;6.28;2.25;;;7.00;99.90;;;;;;5092709;28;20407;-68
2023/10/20 09:18:25;;;;;;;6.43;2.42;;;7.00;99.90;;;;;;5091106;28;20496;-69
2023/10/20 09:20:52;;;;;;;3.10;2.15;;;7.00;99.90;;;;;;5070651;28;20048;-68
2023/10/20 09:23:20;;;;;;;6.05;2.33;;;7.00;99.90;;;;;;5092450;28;20048;-69
2023/10/20 09:25:48;;;;;;;3.85;1.92;;;7.00;99.90;;;;;;5074006;28;20525;-69
2023/10/20 09:28:15;;;;;;;3.33;1.92;;;7.00;99.90;;;;;;5074407;28;20113;-68
2023/10/20 09:30:42;;;;;;;5.03;2.83;;;7.00;99.90;;;;;;5067232;28;20064;-68
2023/10/20 09:33:11;;;;;;;7.70;2.30;;;7.00;99.90;;;;;;5072812;28;20377;-68
2023/10/20 09:35:40;;;;;;;3.10;1.58;;;7.00;99.90;;;;;;5074382;28;20124;-69
2023/10/20 09:38:10;;;;;;;3.70;1.67;;;7.00;99.90;;;;;;5073479;28;20051;-69
2023/10/20 09:40:38;;;;;;;3.72;1.60;;;6.90;99.90;;;;;;5074242;28;20044;-68
2023/10/20 09:43:15;;;;;;;2.08;1.27;;;7.00;99.90;;;;;;5092348;28;20048;-67
2023/10/20 09:45:45;;;;;;;3.03;1.60;;;6.90;99.90;;;;;;5070453;28;20056;-68
2023/10/20 09:48:16;;;;;;;;;;;6.90;99.90;;;;;;5087804;28;20552;-68
2023/10/20 09:50:46;;;;;;;3.08;1.17;;;6.90;99.90;;;;;;5074125;28;19928;-69
2023/10/20 09:53:14;;;;;;;5.10;1.70;;;6.90;99.90;;;;;;5091622;28;20040;-68
2023/10/20 09:55:42;;;;;;;1.98;1.23;;;6.90;99.90;;;;;;5074055;28;20557;-68
2023/10/20 09:58:11;;;;;;;3.67;1.10;;;6.90;99.90;;;;;;5073829;28;20060;-68
2023/10/20 10:00:41;;;;;;;2.55;1.10;;;6.90;99.90;;;;;;5072758;28;20047;-68
2023/10/20 10:03:08;;;;;;;3.05;1.52;;;6.90;99.90;;;;;;5071793;28;20044;-69
2023/10/20 10:05:37;;;;;;;5.15;4.05;;;6.90;99.90;;;;;;5073678;28;20052;-68
2023/10/20 10:08:06;;;;;;;3.40;1.30;;;6.90;99.90;;;;;;5091054;28;20169;-69
2023/10/20 10:10:34;;;;;;;3.10;1.70;;;6.80;99.90;;;;;;5063470;28;20060;-68
2023/10/20 10:13:04;;;;;;;4.85;1.42;;;6.90;99.90;;;;;;5068638;28;20054;-69
2023/10/20 10:15:46;;;;;;;2.45;1.05;;;6.90;99.90;;;;;;5091209;28;20087;-68
2023/10/20 10:18:14;;;;;;;4.28;1.58;;;6.80;99.90;;;;;;5072975;28;20541;-69
2023/10/20 10:20:43;;;;;;;2.58;1.50;;;6.80;99.90;;;;;;5071349;28;20488;-68
2023/10/20 10:23:12;;;;;;;2.72;1.40;;;6.80;99.90;;;;;;5073567;28;20126;-68
2023/10/20 10:25:41;;;;;;;2.75;1.23;;;6.80;99.90;;;;;;5073626;28;20044;-68
2023/10/20 10:28:13;;;;;;;2.88;1.42;;;6.80;99.90;;;;;;5069629;28;20052;-69
2023/10/20 10:30:42;;;;;;;2.08;1.02;;;6.70;99.90;;;;;;5059185;28;20048;-69
2023/10/20 10:33:09;;;;;;;3.00;1.17;;;6.70;99.90;;;;;;5069700;28;20451;-67
2023/10/20 10:35:38;;;;;;;2.13;1.13;;;6.70;99.90;;;;;;5074008;28;20143;-68
2023/10/20 10:38:06;;;;;;;3.08;1.20;;;6.80;99.90;;;;;;5073795;28;20113;-68
2023/10/20 10:40:34;;;;;;;2.60;1.30;;;6.70;99.90;;;;;;5073780;28;20063;-69
2023/10/20 10:43:01;;;;;;;2.25;1.35;;;6.80;99.90;;;;;;5076423;28;20086;-68
2023/10/20 10:45:31;;;;;;;2.65;1.33;;;6.80;99.90;;;;;;5072442;28;20048;-69
2023/10/20 10:48:07;;;;;;;2.75;1.15;;;6.70;99.90;;;;;;5075794;28;20063;-69
2023/10/20 10:50:37;;;;;;;1.90;1.15;;;6.70;99.90;;;;;;5070631;28;20056;-69
2023/10/20 10:53:04;;;;;;;2.63;1.30;;;6.70;99.90;;;;;;5074384;28;20052;-68
2023/10/20 10:55:31;;;;;;;2.33;1.42;;;6.70;99.90;;;;;;5067657;28;20067;-69
2023/10/20 10:58:00;;;;;;;4.63;1.20;;;6.70;99.90;;;;;;5073137;28;20410;-69
2023/10/20 11:00:28;;;;;;;1.88;1.13;;;6.70;99.90;;;;;;5088809;28;20052;-69
2023/10/20 11:02:57;;;;;;;3.05;1.00;;;6.70;99.90;;;;;;5069200;28;20053;-69
2023/10/20 11:05:26;;;;;;;2.13;1.25;;;6.70;99.90;;;;;;5070918;28;20098;-69
2023/10/20 11:07:59;;;;;;;3.00;1.30;;;6.70;99.90;;;;;;5068392;28;20072;-67
2023/10/20 11:10:27;;;;;;;2.95;1.23;;;6.60;99.90;;;;;;5074308;28;20048;-69
2023/10/20 11:12:54;;;;;;;1.90;1.02;;;6.60;99.90;;;;;;5074206;28;20073;-69
2023/10/20 11:15:21;;;;;;;2.50;1.10;;;6.50;99.90;;;;;;5076383;28;20062;-69
2023/10/20 11:17:49;;;;;;;1.45;0.80;;;6.60;99.90;;;;;;5074572;28;20109;-69
2023/10/20 11:20:20;;;;;;;3.08;1.00;;;6.60;99.90;;;;;;5091859;28;20495;-69
2023/10/20 11:22:53;;;;;;;1.65;0.93;;;6.50;99.90;;;;;;5077141;28;20048;-69
2023/10/20 11:25:20;;;;;;;2.45;1.08;;;6.50;99.90;;;;;;5094055;28;20040;-69
2023/10/20 11:27:53;;;;;;;1.98;1.02;;;6.40;99.90;;;;;;5089945;28;20438;-69
2023/10/20 11:30:24;;;;;;;2.58;0.98;;;6.40;99.90;;;;;;5076899;28;20537;-69
2023/10/20 11:32:53;;;;;;;4.45;1.38;;;6.40;99.90;;;;;;5076332;28;20430;-69
2023/10/20 11:35:21;;;;;;;1.42;0.85;;;6.50;99.90;;;;;;5076834;28;20098;-70
2023/10/20 11:37:50;;;;;;;3.08;1.00;;;6.50;99.90;;;;;;5074717;28;20054;-70
2023/10/20 11:40:17;;;;;;;2.83;1.27;;;6.50;99.90;;;;;;5074393;28;20048;-69
2023/10/20 11:42:44;;;;;;;3.83;1.40;;;6.60;99.90;;;;;;5075644;28;20101;-69
2023/10/20 11:45:11;;;;;;;2.35;1.10;;;6.60;99.90;;;;;;5076173;28;20052;-69
2023/10/20 11:47:38;;;;;;;2.17;1.00;;;6.60;99.90;;;;;;5076779;28;20076;-69
2023/10/20 11:50:08;;;;;;;3.60;1.25;;;6.70;99.90;;;;;;5072184;28;20051;-68
2023/10/20 11:52:36;;;;;;;1.88;1.00;;;6.60;99.90;;;;;;5076031;28;20059;-69
2023/10/20 11:55:05;;;;;;;3.42;0.93;;;6.60;99.90;;;;;;5076518;28;20044;-69
2023/10/20 11:57:32;;;;;;;3.50;0.90;;;6.60;99.90;;;;;;5076049;28;20101;-68
2023/10/20 12:00:01;;;;;;;1.80;1.05;;;6.70;99.90;;;;;;5075898;28;20447;-68
2023/10/20 12:02:29;;;;;;;3.40;1.50;;;6.70;99.90;;;;;;5094303;28;20098;-68
2023/10/20 12:04:56;;;;;;;2.65;1.00;;;6.70;99.90;;;;;;5076217;28;20139;-69
2023/10/20 12:07:23;;;;;;;1.92;1.00;;;6.60;99.90;;;;;;5075808;28;20056;-68
2023/10/20 12:09:50;;;;;;;2.22;1.00;;;6.60;99.90;;;;;;5076295;28;20184;-69
2023/10/20 12:12:19;;;;;;;4.45;1.10;;;6.60;99.90;;;;;;5076146;28;20044;-69
2023/10/20 12:14:46;;;;;;;5.55;1.10;;;6.70;99.90;;;;;;5075633;28;20059;-69
2023/10/20 12:17:13;;;;;;;3.20;1.10;;;6.60;99.90;;;;;;5076057;28;20048;-69
2023/10/20 12:19:40;;;;;;;2.38;0.95;;;6.60;99.90;;;;;;5074156;28;20043;-69
2023/10/20 12:22:08;;;;;;;2.67;0.88;;;6.60;99.90;;;;;;5075390;28;20484;-68
2023/10/20 12:24:35;;;;;;;1.83;0.85;;;6.60;99.90;;;;;;5076111;28;20131;-69
2023/10/20 12:27:03;;;;;;;3.65;1.10;;;6.60;99.90;;;;;;5075147;28;20135;-68
2023/10/20 12:29:32;;;;;;;8.80;1.15;;;6.70;99.90;;;;;;5075674;28;20048;-69
2023/10/20 12:31:58;;;;;;;1.90;0.98;;;6.60;99.90;;;;;;5075891;28;20048;-69
2023/10/20 12:34:26;;;;;;;1.90;1.10;;;6.60;99.90;;;;;;5093147;28;20048;-69
2023/10/20 12:36:52;;;;;;;1.45;0.80;;;6.70;99.90;;;;;;5073780;28;20051;-69
2023/10/20 12:39:20;;;;;;;1.52;0.85;;;6.70;99.90;;;;;;5075427;28;20479;-68
2023/10/20 12:41:47;;;;;;;3.30;1.10;;;6.70;99.90;;;;;;5074998;28;20063;-69
2023/10/20 12:44:14;;;;;;;1.65;0.90;;;6.70;99.90;;;;;;5088644;28;20070;-69
2023/10/20 12:46:44;;;;;;;1.95;1.02;;;6.70;99.90;;;;;;5093528;28;20064;-69
2023/10/20 12:49:10;;;;;;;1.60;0.80;;;6.70;99.90;;;;;;5093606;28;20071;-68
2023/10/20 12:51:40;;;;;;;1.98;0.70;;;6.70;99.90;;;;;;5092675;28;20082;-68
2023/10/20 12:54:07;;;;;;;1.63;0.80;;;6.60;99.90;;;;;;5089973;28;20044;-68
2023/10/20 12:56:34;;;;;;;2.28;0.98;;;6.70;99.90;;;;;;5074999;28;20080;-69
2023/10/20 12:59:00;;;;;;;3.03;1.60;;;6.70;99.90;;;;;;5075325;28;20044;-68
2023/10/20 13:01:27;;;;;;;3.67;0.80;;;6.70;99.90;;;;;;5074879;28;20064;-68
2023/10/20 13:03:55;;;;;;;2.05;0.80;;;6.70;99.90;;;;;;5074733;28;20047;-69
2023/10/20 13:06:22;;;;;;;3.13;0.90;;;6.60;99.90;;;;;;5074629;28;20097;-69
2023/10/20 13:08:50;;;;;;;2.00;0.93;;;6.60;99.90;;;;;;5093148;28;20044;-69
2023/10/20 13:11:17;;;;;;;2.85;0.98;;;6.60;99.90;;;;;;5092491;28;20052;-69
2023/10/20 13:13:44;;;;;;;1.45;0.65;;;6.60;99.90;;;;;;5074908;28;20055;-70
2023/10/20 13:16:11;;;;;;;1.60;0.95;;;6.60;99.90;;;;;;5074422;28;20097;-69
2023/10/20 13:18:38;;;;;;;1.63;0.90;;;6.60;99.90;;;;;;5074614;28;20046;-69
2023/10/20 13:21:06;;;;;;;1.55;0.88;;;6.60;99.90;;;;;;5091346;28;20105;-69
2023/10/20 13:23:34;;;;;;;1.98;0.77;;;6.50;99.90;;;;;;5074306;28;20097;-69